sensor_id;sensor_type;location;lat;lon;timestamp;P1;durP1;ratioP1;P2;durP2;ratioP2
66739;SDS011;53653;52.188;8.602;2023-06-24T00:02:08;13.73;;;5.00;;
66739;SDS011;53653;52.188;8.602;2023-06-24T00:04:34;13.20;;;5.35;;
66739;SDS011;53653;52.188;8.602;2023-06-24T00:07:00;11.75;;;4.78;;
66739;SDS011;53653;52.188;8.602;2023-06-24T00:09:26;10.00;;;5.03;;
66739;SDS011;53653;52.188;8.602;2023-06-24T00:11:55;10.27;;;4.77;;
66739;SDS011;53653;52.188;8.602;2023-06-24T00:14:22;11.88;;;5.05;;
66739;SDS011;53653;52.188;8.602;2023-06-24T00:16:50;10.98;;;4.88;;
66739;SDS011;53653;52.188;8.602;2023-06-24T00:19:22;13.38;;;5.18;;
66739;SDS011;53653;52.188;8.602;2023-06-24T00:21:49;13.13;;;5.38;;
66739;SDS011;53653;52.188;8.602;2023-06-24T00:24:19;14.83;;;5.50;;
66739;SDS011;53653;52.188;8.602;2023-06-24T00:26:46;10.68;;;4.80;;
66739;SDS011;53653;52.188;8.602;2023-06-24T00:29:12;10.55;;;5.30;;
66739;SDS011;53653;52.188;8.602;2023-06-24T00:31:38;11.52;;;5.00;;
66739;SDS011;53653;52.188;8.602;2023-06-24T00:34:04;9.70;;;4.70;;
66739;SDS011;53653;52.188;8.602;2023-06-24T00:36:30;15.35;;;4.88;;
66739;SDS011;53653;52.188;8.602;2023-06-24T00:39:00;9.48;;;4.57;;
66739;SDS011;53653;52.188;8.602;2023-06-24T00:41:28;10.25;;;4.75;;
66739;SDS011;53653;52.188;8.602;2023-06-24T00:43:55;11.97;;;5.00;;
66739;SDS011;53653;52.188;8.602;2023-06-24T00:46:23;10.80;;;5.03;;
66739;SDS011;53653;52.188;8.602;2023-06-24T00:48:51;13.93;;;5.97;;
66739;SDS011;53653;52.188;8.602;2023-06-24T00:51:19;10.82;;;5.50;;
66739;SDS011;53653;52.188;8.602;2023-06-24T00:53:57;12.25;;;5.60;;
66739;SDS011;53653;52.188;8.602;2023-06-24T00:56:31;11.27;;;4.83;;
66739;SDS011;53653;52.188;8.602;2023-06-24T00:59:03;11.02;;;5.47;;
66739;SDS011;53653;52.188;8.602;2023-06-24T01:01:34;11.30;;;5.07;;
66739;SDS011;53653;52.188;8.602;2023-06-24T01:04:03;10.35;;;5.18;;
66739;SDS011;53653;52.188;8.602;2023-06-24T01:06:30;10.95;;;4.95;;
66739;SDS011;53653;52.188;8.602;2023-06-24T01:08:59;11.93;;;5.10;;
66739;SDS011;53653;52.188;8.602;2023-06-24T01:11:27;12.65;;;5.47;;
66739;SDS011;53653;52.188;8.602;2023-06-24T01:13:53;11.13;;;5.05;;
66739;SDS011;53653;52.188;8.602;2023-06-24T01:16:32;18.98;;;4.90;;
66739;SDS011;53653;52.188;8.602;2023-06-24T01:22:26;10.50;;;5.37;;
66739;SDS011;53653;52.188;8.602;2023-06-24T01:25:08;12.45;;;5.50;;
66739;SDS011;53653;52.188;8.602;2023-06-24T01:30:59;13.82;;;5.97;;
66739;SDS011;53653;52.188;8.602;2023-06-24T01:33:58;12.55;;;5.60;;
66739;SDS011;53653;52.188;8.602;2023-06-24T01:36:48;11.53;;;5.73;;
66739;SDS011;53653;52.188;8.602;2023-06-24T01:39:28;11.23;;;5.65;;
66739;SDS011;53653;52.188;8.602;2023-06-24T01:42:00;9.02;;;4.90;;
66739;SDS011;53653;52.188;8.602;2023-06-24T01:44:32;11.48;;;5.72;;
66739;SDS011;53653;52.188;8.602;2023-06-24T01:47:00;12.07;;;5.35;;
66739;SDS011;53653;52.188;8.602;2023-06-24T01:49:31;10.23;;;5.47;;
66739;SDS011;53653;52.188;8.602;2023-06-24T01:51:58;12.18;;;5.90;;
66739;SDS011;53653;52.188;8.602;2023-06-24T01:54:28;11.93;;;5.90;;
66739;SDS011;53653;52.188;8.602;2023-06-24T01:56:55;19.20;;;5.72;;
66739;SDS011;53653;52.188;8.602;2023-06-24T01:59:24;12.63;;;6.07;;
66739;SDS011;53653;52.188;8.602;2023-06-24T02:01:53;12.17;;;5.90;;
66739;SDS011;53653;52.188;8.602;2023-06-24T02:04:20;11.23;;;5.93;;
66739;SDS011;53653;52.188;8.602;2023-06-24T02:06:47;11.13;;;5.80;;
66739;SDS011;53653;52.188;8.602;2023-06-24T02:09:13;13.23;;;6.05;;
66739;SDS011;53653;52.188;8.602;2023-06-24T02:11:41;12.87;;;5.97;;
66739;SDS011;53653;52.188;8.602;2023-06-24T02:14:08;14.30;;;5.72;;
66739;SDS011;53653;52.188;8.602;2023-06-24T02:16:35;11.20;;;5.63;;
66739;SDS011;53653;52.188;8.602;2023-06-24T02:19:02;13.82;;;6.43;;
66739;SDS011;53653;52.188;8.602;2023-06-24T02:21:30;11.18;;;6.05;;
66739;SDS011;53653;52.188;8.602;2023-06-24T02:23:56;11.83;;;5.63;;
66739;SDS011;53653;52.188;8.602;2023-06-24T02:26:22;13.77;;;6.13;;
66739;SDS011;53653;52.188;8.602;2023-06-24T02:28:51;13.10;;;6.22;;
66739;SDS011;53653;52.188;8.602;2023-06-24T02:31:18;14.32;;;6.13;;
66739;SDS011;53653;52.188;8.602;2023-06-24T02:33:44;11.23;;;5.68;;
66739;SDS011;53653;52.188;8.602;2023-06-24T02:36:10;12.73;;;6.03;;
66739;SDS011;53653;52.188;8.602;2023-06-24T02:38:36;13.30;;;6.00;;
66739;SDS011;53653;52.188;8.602;2023-06-24T02:41:03;15.93;;;6.63;;
66739;SDS011;53653;52.188;8.602;2023-06-24T02:43:30;13.13;;;5.80;;
66739;SDS011;53653;52.188;8.602;2023-06-24T02:45:57;15.87;;;5.90;;
66739;SDS011;53653;52.188;8.602;2023-06-24T02:48:28;11.93;;;6.05;;
66739;SDS011;53653;52.188;8.602;2023-06-24T02:50:56;12.15;;;5.43;;
66739;SDS011;53653;52.188;8.602;2023-06-24T02:53:24;12.57;;;5.60;;
66739;SDS011;53653;52.188;8.602;2023-06-24T02:55:50;12.30;;;5.82;;
66739;SDS011;53653;52.188;8.602;2023-06-24T02:58:16;12.87;;;5.90;;
66739;SDS011;53653;52.188;8.602;2023-06-24T03:01:01;12.63;;;5.80;;
66739;SDS011;53653;52.188;8.602;2023-06-24T03:03:43;10.38;;;5.10;;
66739;SDS011;53653;52.188;8.602;2023-06-24T03:06:16;9.93;;;5.25;;
66739;SDS011;53653;52.188;8.602;2023-06-24T03:08:44;13.40;;;5.28;;
66739;SDS011;53653;52.188;8.602;2023-06-24T03:11:12;11.07;;;5.60;;
66739;SDS011;53653;52.188;8.602;2023-06-24T03:13:39;10.75;;;5.28;;
66739;SDS011;53653;52.188;8.602;2023-06-24T03:16:12;10.30;;;5.30;;
66739;SDS011;53653;52.188;8.602;2023-06-24T03:18:45;15.50;;;6.00;;
66739;SDS011;53653;52.188;8.602;2023-06-24T03:21:11;14.70;;;5.70;;
66739;SDS011;53653;52.188;8.602;2023-06-24T03:23:38;12.52;;;5.68;;
66739;SDS011;53653;52.188;8.602;2023-06-24T03:26:07;12.45;;;6.05;;
66739;SDS011;53653;52.188;8.602;2023-06-24T03:28:35;11.80;;;5.57;;
66739;SDS011;53653;52.188;8.602;2023-06-24T03:31:09;13.27;;;6.00;;
66739;SDS011;53653;52.188;8.602;2023-06-24T03:33:36;11.87;;;6.00;;
66739;SDS011;53653;52.188;8.602;2023-06-24T03:36:03;12.75;;;6.05;;
66739;SDS011;53653;52.188;8.602;2023-06-24T03:38:32;11.77;;;5.75;;
66739;SDS011;53653;52.188;8.602;2023-06-24T03:40:58;15.35;;;6.28;;
66739;SDS011;53653;52.188;8.602;2023-06-24T03:43:24;13.53;;;6.40;;
66739;SDS011;53653;52.188;8.602;2023-06-24T03:45:50;13.30;;;5.90;;
66739;SDS011;53653;52.188;8.602;2023-06-24T03:48:17;15.38;;;6.50;;
66739;SDS011;53653;52.188;8.602;2023-06-24T03:50:43;12.95;;;6.13;;
66739;SDS011;53653;52.188;8.602;2023-06-24T03:53:09;15.00;;;6.03;;
66739;SDS011;53653;52.188;8.602;2023-06-24T03:55:36;15.40;;;6.38;;
66739;SDS011;53653;52.188;8.602;2023-06-24T03:58:03;13.98;;;6.32;;
66739;SDS011;53653;52.188;8.602;2023-06-24T04:00:29;13.80;;;6.68;;
66739;SDS011;53653;52.188;8.602;2023-06-24T04:02:55;13.10;;;6.00;;
66739;SDS011;53653;52.188;8.602;2023-06-24T04:05:20;14.27;;;6.28;;
66739;SDS011;53653;52.188;8.602;2023-06-24T04:07:50;14.70;;;6.30;;
66739;SDS011;53653;52.188;8.602;2023-06-24T04:10:17;14.07;;;5.93;;
66739;SDS011;53653;52.188;8.602;2023-06-24T04:12:43;15.40;;;6.03;;
66739;SDS011;53653;52.188;8.602;2023-06-24T04:15:10;12.52;;;5.43;;
66739;SDS011;53653;52.188;8.602;2023-06-24T04:17:36;13.18;;;6.03;;
66739;SDS011;53653;52.188;8.602;2023-06-24T04:20:02;13.43;;;5.90;;
66739;SDS011;53653;52.188;8.602;2023-06-24T04:22:40;14.35;;;6.22;;
66739;SDS011;53653;52.188;8.602;2023-06-24T04:25:07;12.25;;;6.00;;
66739;SDS011;53653;52.188;8.602;2023-06-24T04:27:34;12.02;;;6.05;;
66739;SDS011;53653;52.188;8.602;2023-06-24T04:30:01;14.60;;;6.77;;
66739;SDS011;53653;52.188;8.602;2023-06-24T04:32:29;16.02;;;6.90;;
66739;SDS011;53653;52.188;8.602;2023-06-24T04:34:55;13.02;;;6.65;;
66739;SDS011;53653;52.188;8.602;2023-06-24T04:37:23;14.43;;;7.13;;
66739;SDS011;53653;52.188;8.602;2023-06-24T04:39:49;14.27;;;7.00;;
66739;SDS011;53653;52.188;8.602;2023-06-24T04:42:16;15.50;;;7.23;;
66739;SDS011;53653;52.188;8.602;2023-06-24T04:44:41;19.92;;;7.15;;
66739;SDS011;53653;52.188;8.602;2023-06-24T04:47:07;14.95;;;7.18;;
66739;SDS011;53653;52.188;8.602;2023-06-24T04:49:33;13.77;;;7.63;;
66739;SDS011;53653;52.188;8.602;2023-06-24T04:52:00;12.35;;;6.70;;
66739;SDS011;53653;52.188;8.602;2023-06-24T04:54:27;14.25;;;6.78;;
66739;SDS011;53653;52.188;8.602;2023-06-24T04:56:52;14.20;;;7.10;;
66739;SDS011;53653;52.188;8.602;2023-06-24T04:59:21;15.77;;;6.75;;
66739;SDS011;53653;52.188;8.602;2023-06-24T05:01:47;14.63;;;6.80;;
66739;SDS011;53653;52.188;8.602;2023-06-24T05:04:12;16.95;;;7.93;;
66739;SDS011;53653;52.188;8.602;2023-06-24T05:06:38;14.50;;;7.57;;
66739;SDS011;53653;52.188;8.602;2023-06-24T05:09:04;16.10;;;7.60;;
66739;SDS011;53653;52.188;8.602;2023-06-24T05:11:30;16.05;;;7.85;;
66739;SDS011;53653;52.188;8.602;2023-06-24T05:13:55;14.82;;;7.30;;
66739;SDS011;53653;52.188;8.602;2023-06-24T05:16:22;15.30;;;7.07;;
66739;SDS011;53653;52.188;8.602;2023-06-24T05:18:49;14.35;;;7.13;;
66739;SDS011;53653;52.188;8.602;2023-06-24T05:21:15;15.23;;;6.43;;
66739;SDS011;53653;52.188;8.602;2023-06-24T05:23:41;16.95;;;7.68;;
66739;SDS011;53653;52.188;8.602;2023-06-24T05:26:07;15.37;;;6.87;;
66739;SDS011;53653;52.188;8.602;2023-06-24T05:28:33;13.18;;;7.20;;
66739;SDS011;53653;52.188;8.602;2023-06-24T05:30:58;12.55;;;6.43;;
66739;SDS011;53653;52.188;8.602;2023-06-24T05:33:24;13.77;;;6.60;;
66739;SDS011;53653;52.188;8.602;2023-06-24T05:35:50;16.63;;;6.53;;
66739;SDS011;53653;52.188;8.602;2023-06-24T05:38:16;23.33;;;6.65;;
66739;SDS011;53653;52.188;8.602;2023-06-24T05:40:42;12.30;;;6.43;;
66739;SDS011;53653;52.188;8.602;2023-06-24T05:43:08;11.60;;;6.50;;
66739;SDS011;53653;52.188;8.602;2023-06-24T05:45:34;14.73;;;6.30;;
66739;SDS011;53653;52.188;8.602;2023-06-24T05:48:00;15.65;;;6.88;;
66739;SDS011;53653;52.188;8.602;2023-06-24T05:50:28;13.80;;;6.27;;
66739;SDS011;53653;52.188;8.602;2023-06-24T05:52:54;15.35;;;6.57;;
66739;SDS011;53653;52.188;8.602;2023-06-24T05:55:20;13.07;;;6.38;;
66739;SDS011;53653;52.188;8.602;2023-06-24T05:57:45;14.33;;;6.90;;
66739;SDS011;53653;52.188;8.602;2023-06-24T06:00:11;13.07;;;6.23;;
66739;SDS011;53653;52.188;8.602;2023-06-24T06:02:37;15.80;;;6.20;;
66739;SDS011;53653;52.188;8.602;2023-06-24T06:05:03;17.98;;;7.50;;
66739;SDS011;53653;52.188;8.602;2023-06-24T06:07:29;12.37;;;5.90;;
66739;SDS011;53653;52.188;8.602;2023-06-24T06:09:55;14.23;;;6.32;;
66739;SDS011;53653;52.188;8.602;2023-06-24T06:12:21;11.60;;;5.33;;
66739;SDS011;53653;52.188;8.602;2023-06-24T06:14:47;12.75;;;5.90;;
66739;SDS011;53653;52.188;8.602;2023-06-24T06:17:13;12.13;;;5.50;;
66739;SDS011;53653;52.188;8.602;2023-06-24T06:19:40;14.93;;;5.93;;
66739;SDS011;53653;52.188;8.602;2023-06-24T06:22:07;13.10;;;6.07;;
66739;SDS011;53653;52.188;8.602;2023-06-24T06:24:33;13.18;;;6.18;;
66739;SDS011;53653;52.188;8.602;2023-06-24T06:26:59;13.50;;;5.85;;
66739;SDS011;53653;52.188;8.602;2023-06-24T06:29:25;12.35;;;5.43;;
66739;SDS011;53653;52.188;8.602;2023-06-24T06:31:51;12.07;;;5.25;;
66739;SDS011;53653;52.188;8.602;2023-06-24T06:34:18;13.73;;;6.50;;
66739;SDS011;53653;52.188;8.602;2023-06-24T06:36:45;11.70;;;6.10;;
66739;SDS011;53653;52.188;8.602;2023-06-24T06:39:11;12.57;;;6.07;;
66739;SDS011;53653;52.188;8.602;2023-06-24T06:41:36;9.93;;;5.20;;
66739;SDS011;53653;52.188;8.602;2023-06-24T06:44:02;10.38;;;5.55;;
66739;SDS011;53653;52.188;8.602;2023-06-24T06:46:28;13.80;;;6.27;;
66739;SDS011;53653;52.188;8.602;2023-06-24T06:48:54;12.05;;;6.38;;
66739;SDS011;53653;52.188;8.602;2023-06-24T06:51:20;14.07;;;5.63;;
66739;SDS011;53653;52.188;8.602;2023-06-24T06:53:46;12.68;;;6.10;;
66739;SDS011;53653;52.188;8.602;2023-06-24T06:56:45;13.63;;;6.20;;
66739;SDS011;53653;52.188;8.602;2023-06-24T06:59:04;9.20;;;4.90;;
66739;SDS011;53653;52.188;8.602;2023-06-24T07:01:30;12.73;;;5.75;;
66739;SDS011;53653;52.188;8.602;2023-06-24T07:03:56;13.93;;;5.80;;
66739;SDS011;53653;52.188;8.602;2023-06-24T07:06:22;10.32;;;5.78;;
66739;SDS011;53653;52.188;8.602;2023-06-24T07:08:48;9.63;;;5.45;;
66739;SDS011;53653;52.188;8.602;2023-06-24T07:11:14;11.80;;;6.47;;
66739;SDS011;53653;52.188;8.602;2023-06-24T07:13:40;10.30;;;6.10;;
66739;SDS011;53653;52.188;8.602;2023-06-24T07:16:05;10.83;;;5.73;;
66739;SDS011;53653;52.188;8.602;2023-06-24T07:18:31;14.47;;;6.10;;
66739;SDS011;53653;52.188;8.602;2023-06-24T07:20:59;11.63;;;6.00;;
66739;SDS011;53653;52.188;8.602;2023-06-24T07:23:25;10.15;;;5.32;;
66739;SDS011;53653;52.188;8.602;2023-06-24T07:25:51;11.93;;;5.53;;
66739;SDS011;53653;52.188;8.602;2023-06-24T07:28:16;11.85;;;5.75;;
66739;SDS011;53653;52.188;8.602;2023-06-24T07:30:42;11.43;;;6.32;;
66739;SDS011;53653;52.188;8.602;2023-06-24T07:33:09;11.10;;;5.80;;
66739;SDS011;53653;52.188;8.602;2023-06-24T07:35:35;10.82;;;5.40;;
66739;SDS011;53653;52.188;8.602;2023-06-24T07:38:01;10.18;;;5.60;;
66739;SDS011;53653;52.188;8.602;2023-06-24T07:40:26;13.30;;;6.00;;
66739;SDS011;53653;52.188;8.602;2023-06-24T07:42:53;13.07;;;6.45;;
66739;SDS011;53653;52.188;8.602;2023-06-24T07:45:19;11.82;;;5.60;;
66739;SDS011;53653;52.188;8.602;2023-06-24T07:47:46;11.60;;;6.07;;
66739;SDS011;53653;52.188;8.602;2023-06-24T07:50:11;11.97;;;5.90;;
66739;SDS011;53653;52.188;8.602;2023-06-24T07:52:38;12.57;;;6.35;;
66739;SDS011;53653;52.188;8.602;2023-06-24T07:55:04;13.40;;;6.85;;
66739;SDS011;53653;52.188;8.602;2023-06-24T07:57:30;13.13;;;6.60;;
66739;SDS011;53653;52.188;8.602;2023-06-24T07:59:55;12.03;;;5.87;;
66739;SDS011;53653;52.188;8.602;2023-06-24T08:02:21;12.80;;;6.07;;
66739;SDS011;53653;52.188;8.602;2023-06-24T08:04:49;9.85;;;6.20;;
66739;SDS011;53653;52.188;8.602;2023-06-24T08:07:15;12.53;;;6.20;;
66739;SDS011;53653;52.188;8.602;2023-06-24T08:09:42;10.65;;;6.15;;
66739;SDS011;53653;52.188;8.602;2023-06-24T08:12:07;12.18;;;5.95;;
66739;SDS011;53653;52.188;8.602;2023-06-24T08:14:34;11.70;;;6.72;;
66739;SDS011;53653;52.188;8.602;2023-06-24T08:17:00;11.67;;;6.10;;
66739;SDS011;53653;52.188;8.602;2023-06-24T08:19:26;9.60;;;5.50;;
66739;SDS011;53653;52.188;8.602;2023-06-24T08:21:52;10.45;;;5.60;;
66739;SDS011;53653;52.188;8.602;2023-06-24T08:24:18;12.90;;;5.90;;
66739;SDS011;53653;52.188;8.602;2023-06-24T08:26:44;10.77;;;5.53;;
66739;SDS011;53653;52.188;8.602;2023-06-24T08:29:10;11.07;;;6.38;;
66739;SDS011;53653;52.188;8.602;2023-06-24T08:31:36;9.50;;;5.27;;
66739;SDS011;53653;52.188;8.602;2023-06-24T08:34:02;9.85;;;5.10;;
66739;SDS011;53653;52.188;8.602;2023-06-24T08:36:28;13.73;;;5.97;;
66739;SDS011;53653;52.188;8.602;2023-06-24T08:38:57;10.37;;;5.57;;
66739;SDS011;53653;52.188;8.602;2023-06-24T08:41:24;10.95;;;5.97;;
66739;SDS011;53653;52.188;8.602;2023-06-24T08:43:51;10.05;;;5.85;;
66739;SDS011;53653;52.188;8.602;2023-06-24T08:46:17;12.35;;;6.28;;
66739;SDS011;53653;52.188;8.602;2023-06-24T08:48:45;13.50;;;5.83;;
66739;SDS011;53653;52.188;8.602;2023-06-24T08:51:11;13.05;;;6.00;;
66739;SDS011;53653;52.188;8.602;2023-06-24T08:53:41;10.68;;;5.50;;
66739;SDS011;53653;52.188;8.602;2023-06-24T08:56:09;10.90;;;5.97;;
66739;SDS011;53653;52.188;8.602;2023-06-24T08:58:35;11.63;;;6.18;;
66739;SDS011;53653;52.188;8.602;2023-06-24T09:01:01;12.40;;;5.70;;
66739;SDS011;53653;52.188;8.602;2023-06-24T09:03:28;12.23;;;6.05;;
66739;SDS011;53653;52.188;8.602;2023-06-24T09:05:53;11.98;;;5.78;;
66739;SDS011;53653;52.188;8.602;2023-06-24T09:08:21;12.65;;;6.38;;
66739;SDS011;53653;52.188;8.602;2023-06-24T09:10:52;12.07;;;6.03;;
66739;SDS011;53653;52.188;8.602;2023-06-24T09:13:20;10.43;;;6.13;;
66739;SDS011;53653;52.188;8.602;2023-06-24T09:15:48;13.73;;;6.30;;
66739;SDS011;53653;52.188;8.602;2023-06-24T09:18:14;10.80;;;5.50;;
66739;SDS011;53653;52.188;8.602;2023-06-24T09:20:42;12.35;;;6.35;;
66739;SDS011;53653;52.188;8.602;2023-06-24T09:23:10;10.37;;;5.93;;
66739;SDS011;53653;52.188;8.602;2023-06-24T09:25:37;9.93;;;5.88;;
66739;SDS011;53653;52.188;8.602;2023-06-24T09:28:03;11.10;;;6.22;;
66739;SDS011;53653;52.188;8.602;2023-06-24T09:30:29;13.05;;;6.28;;
66739;SDS011;53653;52.188;8.602;2023-06-24T09:32:55;12.53;;;6.27;;
66739;SDS011;53653;52.188;8.602;2023-06-24T09:35:22;14.13;;;6.85;;
66739;SDS011;53653;52.188;8.602;2023-06-24T09:37:53;11.65;;;6.43;;
66739;SDS011;53653;52.188;8.602;2023-06-24T09:40:21;10.77;;;5.88;;
66739;SDS011;53653;52.188;8.602;2023-06-24T09:42:48;12.60;;;6.78;;
66739;SDS011;53653;52.188;8.602;2023-06-24T09:45:19;13.77;;;7.10;;
66739;SDS011;53653;52.188;8.602;2023-06-24T09:47:46;11.50;;;6.70;;
66739;SDS011;53653;52.188;8.602;2023-06-24T09:50:12;14.45;;;6.50;;
66739;SDS011;53653;52.188;8.602;2023-06-24T09:52:37;12.13;;;6.13;;
66739;SDS011;53653;52.188;8.602;2023-06-24T09:55:04;12.37;;;6.40;;
66739;SDS011;53653;52.188;8.602;2023-06-24T09:57:32;11.93;;;6.63;;
66739;SDS011;53653;52.188;8.602;2023-06-24T09:59:59;12.80;;;7.00;;
66739;SDS011;53653;52.188;8.602;2023-06-24T10:02:28;18.05;;;7.03;;
66739;SDS011;53653;52.188;8.602;2023-06-24T10:04:55;14.52;;;6.50;;
66739;SDS011;53653;52.188;8.602;2023-06-24T10:07:21;14.43;;;6.93;;
66739;SDS011;53653;52.188;8.602;2023-06-24T10:09:47;14.40;;;7.32;;
66739;SDS011;53653;52.188;8.602;2023-06-24T10:12:14;11.98;;;6.88;;
66739;SDS011;53653;52.188;8.602;2023-06-24T10:14:40;16.10;;;7.93;;
66739;SDS011;53653;52.188;8.602;2023-06-24T10:17:06;12.93;;;7.18;;
66739;SDS011;53653;52.188;8.602;2023-06-24T10:19:37;11.60;;;6.17;;
66739;SDS011;53653;52.188;8.602;2023-06-24T10:22:07;14.32;;;6.82;;
66739;SDS011;53653;52.188;8.602;2023-06-24T10:24:38;11.82;;;6.47;;
66739;SDS011;53653;52.188;8.602;2023-06-24T10:28:08;12.35;;;7.20;;
66739;SDS011;53653;52.188;8.602;2023-06-24T10:30:07;12.32;;;7.03;;
66739;SDS011;53653;52.188;8.602;2023-06-24T10:32:43;13.03;;;7.13;;
66739;SDS011;53653;52.188;8.602;2023-06-24T10:35:20;12.30;;;7.00;;
66739;SDS011;53653;52.188;8.602;2023-06-24T10:37:55;12.85;;;7.90;;
66739;SDS011;53653;52.188;8.602;2023-06-24T10:40:35;12.85;;;7.80;;
66739;SDS011;53653;52.188;8.602;2023-06-24T10:46:06;13.97;;;6.83;;
66739;SDS011;53653;52.188;8.602;2023-06-24T10:48:41;15.43;;;6.88;;
66739;SDS011;53653;52.188;8.602;2023-06-24T10:51:07;12.82;;;7.25;;
66739;SDS011;53653;52.188;8.602;2023-06-24T10:53:33;12.68;;;6.90;;
66739;SDS011;53653;52.188;8.602;2023-06-24T10:56:01;16.25;;;7.25;;
66739;SDS011;53653;52.188;8.602;2023-06-24T10:58:27;11.67;;;6.70;;
66739;SDS011;53653;52.188;8.602;2023-06-24T11:00:53;10.80;;;6.60;;
66739;SDS011;53653;52.188;8.602;2023-06-24T11:03:33;13.00;;;6.53;;
66739;SDS011;53653;52.188;8.602;2023-06-24T11:06:00;12.20;;;6.93;;
66739;SDS011;53653;52.188;8.602;2023-06-24T11:08:29;12.18;;;6.85;;
66739;SDS011;53653;52.188;8.602;2023-06-24T11:10:55;10.90;;;6.53;;
66739;SDS011;53653;52.188;8.602;2023-06-24T11:13:21;13.50;;;6.50;;
66739;SDS011;53653;52.188;8.602;2023-06-24T11:15:47;12.17;;;6.73;;
66739;SDS011;53653;52.188;8.602;2023-06-24T11:18:12;14.32;;;6.47;;
66739;SDS011;53653;52.188;8.602;2023-06-24T11:20:38;11.25;;;6.68;;
66739;SDS011;53653;52.188;8.602;2023-06-24T11:23:08;17.53;;;6.70;;
66739;SDS011;53653;52.188;8.602;2023-06-24T11:25:39;14.43;;;6.47;;
66739;SDS011;53653;52.188;8.602;2023-06-24T11:28:12;12.38;;;6.93;;
66739;SDS011;53653;52.188;8.602;2023-06-24T11:30:38;10.45;;;6.25;;
66739;SDS011;53653;52.188;8.602;2023-06-24T11:33:04;13.60;;;7.20;;
66739;SDS011;53653;52.188;8.602;2023-06-24T11:35:30;11.70;;;7.22;;
66739;SDS011;53653;52.188;8.602;2023-06-24T11:38:00;15.63;;;6.38;;
66739;SDS011;53653;52.188;8.602;2023-06-24T11:40:26;9.60;;;5.53;;
66739;SDS011;53653;52.188;8.602;2023-06-24T11:42:52;12.23;;;5.77;;
66739;SDS011;53653;52.188;8.602;2023-06-24T11:45:19;10.32;;;6.20;;
66739;SDS011;53653;52.188;8.602;2023-06-24T11:47:46;11.40;;;6.18;;
66739;SDS011;53653;52.188;8.602;2023-06-24T11:50:13;10.02;;;6.00;;
66739;SDS011;53653;52.188;8.602;2023-06-24T11:52:40;11.03;;;6.37;;
66739;SDS011;53653;52.188;8.602;2023-06-24T11:55:17;12.02;;;6.32;;
66739;SDS011;53653;52.188;8.602;2023-06-24T11:57:56;9.57;;;6.30;;
66739;SDS011;53653;52.188;8.602;2023-06-24T12:00:27;11.13;;;6.20;;
66739;SDS011;53653;52.188;8.602;2023-06-24T12:02:55;10.53;;;5.83;;
66739;SDS011;53653;52.188;8.602;2023-06-24T12:05:24;13.73;;;6.65;;
66739;SDS011;53653;52.188;8.602;2023-06-24T12:07:54;12.60;;;6.40;;
66739;SDS011;53653;52.188;8.602;2023-06-24T12:10:21;12.05;;;6.47;;
66739;SDS011;53653;52.188;8.602;2023-06-24T12:12:47;12.68;;;6.03;;
66739;SDS011;53653;52.188;8.602;2023-06-24T12:15:13;10.60;;;6.47;;
66739;SDS011;53653;52.188;8.602;2023-06-24T12:17:39;10.68;;;6.13;;
66739;SDS011;53653;52.188;8.602;2023-06-24T12:20:05;10.80;;;5.78;;
66739;SDS011;53653;52.188;8.602;2023-06-24T12:22:32;11.47;;;6.40;;
66739;SDS011;53653;52.188;8.602;2023-06-24T12:24:58;11.85;;;6.68;;
66739;SDS011;53653;52.188;8.602;2023-06-24T12:27:24;12.07;;;6.88;;
66739;SDS011;53653;52.188;8.602;2023-06-24T12:29:50;10.57;;;6.27;;
66739;SDS011;53653;52.188;8.602;2023-06-24T12:32:16;10.48;;;6.47;;
66739;SDS011;53653;52.188;8.602;2023-06-24T12:34:41;11.60;;;6.55;;
66739;SDS011;53653;52.188;8.602;2023-06-24T12:37:07;10.03;;;6.50;;
66739;SDS011;53653;52.188;8.602;2023-06-24T12:39:33;12.43;;;7.10;;
66739;SDS011;53653;52.188;8.602;2023-06-24T12:41:59;11.15;;;7.20;;
66739;SDS011;53653;52.188;8.602;2023-06-24T12:44:25;11.23;;;6.80;;
66739;SDS011;53653;52.188;8.602;2023-06-24T12:46:51;9.88;;;6.43;;
66739;SDS011;53653;52.188;8.602;2023-06-24T12:49:16;10.63;;;6.28;;
66739;SDS011;53653;52.188;8.602;2023-06-24T12:51:42;11.47;;;6.40;;
66739;SDS011;53653;52.188;8.602;2023-06-24T12:54:08;12.85;;;6.22;;
66739;SDS011;53653;52.188;8.602;2023-06-24T12:56:33;13.03;;;6.80;;
66739;SDS011;53653;52.188;8.602;2023-06-24T12:58:59;10.25;;;6.60;;
66739;SDS011;53653;52.188;8.602;2023-06-24T13:01:25;10.00;;;6.03;;
66739;SDS011;53653;52.188;8.602;2023-06-24T13:03:51;10.60;;;6.28;;
66739;SDS011;53653;52.188;8.602;2023-06-24T13:06:16;11.00;;;6.80;;
66739;SDS011;53653;52.188;8.602;2023-06-24T13:08:42;10.87;;;6.30;;
66739;SDS011;53653;52.188;8.602;2023-06-24T13:11:08;11.48;;;6.32;;
66739;SDS011;53653;52.188;8.602;2023-06-24T13:13:34;10.60;;;6.03;;
66739;SDS011;53653;52.188;8.602;2023-06-24T13:16:01;10.90;;;6.67;;
66739;SDS011;53653;52.188;8.602;2023-06-24T13:18:26;10.65;;;6.30;;
66739;SDS011;53653;52.188;8.602;2023-06-24T13:20:52;10.63;;;6.32;;
66739;SDS011;53653;52.188;8.602;2023-06-24T13:23:18;10.83;;;6.10;;
66739;SDS011;53653;52.188;8.602;2023-06-24T13:25:44;9.40;;;5.78;;
66739;SDS011;53653;52.188;8.602;2023-06-24T13:28:09;9.70;;;5.73;;
66739;SDS011;53653;52.188;8.602;2023-06-24T13:30:35;12.10;;;6.03;;
66739;SDS011;53653;52.188;8.602;2023-06-24T13:33:01;10.03;;;5.70;;
66739;SDS011;53653;52.188;8.602;2023-06-24T13:35:27;10.55;;;6.90;;
66739;SDS011;53653;52.188;8.602;2023-06-24T13:37:52;12.60;;;6.30;;
66739;SDS011;53653;52.188;8.602;2023-06-24T13:40:18;10.00;;;6.70;;
66739;SDS011;53653;52.188;8.602;2023-06-24T13:42:44;11.32;;;7.10;;
66739;SDS011;53653;52.188;8.602;2023-06-24T13:45:10;10.48;;;6.03;;
66739;SDS011;53653;52.188;8.602;2023-06-24T13:47:36;13.70;;;6.50;;
66739;SDS011;53653;52.188;8.602;2023-06-24T13:50:03;10.90;;;6.57;;
66739;SDS011;53653;52.188;8.602;2023-06-24T13:52:29;10.50;;;6.55;;
66739;SDS011;53653;52.188;8.602;2023-06-24T13:54:55;9.27;;;6.32;;
66739;SDS011;53653;52.188;8.602;2023-06-24T13:57:21;12.00;;;7.13;;
66739;SDS011;53653;52.188;8.602;2023-06-24T13:59:47;10.23;;;7.07;;
66739;SDS011;53653;52.188;8.602;2023-06-24T14:02:13;10.63;;;6.55;;
66739;SDS011;53653;52.188;8.602;2023-06-24T14:04:38;11.20;;;7.00;;
66739;SDS011;53653;52.188;8.602;2023-06-24T14:07:05;10.38;;;6.53;;
66739;SDS011;53653;52.188;8.602;2023-06-24T14:09:32;10.70;;;6.30;;
66739;SDS011;53653;52.188;8.602;2023-06-24T14:11:58;9.57;;;6.68;;
66739;SDS011;53653;52.188;8.602;2023-06-24T14:14:23;11.67;;;6.73;;
66739;SDS011;53653;52.188;8.602;2023-06-24T14:16:50;11.57;;;6.45;;
66739;SDS011;53653;52.188;8.602;2023-06-24T14:19:15;9.23;;;6.43;;
66739;SDS011;53653;52.188;8.602;2023-06-24T14:21:41;12.03;;;6.60;;
66739;SDS011;53653;52.188;8.602;2023-06-24T14:24:07;11.48;;;7.80;;
66739;SDS011;53653;52.188;8.602;2023-06-24T14:26:35;9.45;;;6.57;;
66739;SDS011;53653;52.188;8.602;2023-06-24T14:29:01;12.10;;;6.43;;
66739;SDS011;53653;52.188;8.602;2023-06-24T14:31:27;12.13;;;6.78;;
66739;SDS011;53653;52.188;8.602;2023-06-24T14:33:53;10.05;;;6.80;;
66739;SDS011;53653;52.188;8.602;2023-06-24T14:36:19;10.73;;;6.70;;
66739;SDS011;53653;52.188;8.602;2023-06-24T14:38:45;12.70;;;7.60;;
66739;SDS011;53653;52.188;8.602;2023-06-24T14:41:10;10.18;;;6.50;;
66739;SDS011;53653;52.188;8.602;2023-06-24T14:43:36;11.70;;;7.32;;
66739;SDS011;53653;52.188;8.602;2023-06-24T14:46:02;11.57;;;6.87;;
66739;SDS011;53653;52.188;8.602;2023-06-24T14:48:28;10.98;;;6.90;;